Time;durP1;ratioP1;P1;durP2;ratioP2;P2;SDS_P1;SDS_P2;PMS_P1;PMS_P2;Temp;Humidity;BMP_temperature;BMP_pressure;BME280_temperature;BME280_humidity;BME280_pressure;Samples;Min_cycle;Max_cycle;Signal;HPM_P1;HPM_P2
2022/11/11 00:01:26;;;;;;;13.82;8.25;;;9.20;99.90;;;;;;5039144;28;20100;-60
2022/11/11 00:03:55;;;;;;;13.02;7.57;;;9.20;99.90;;;;;;5042138;28;20171;-58
2022/11/11 00:06:21;;;;;;;14.13;7.90;;;9.20;99.90;;;;;;5043019;28;20049;-61
2022/11/11 00:08:47;;;;;;;16.05;8.73;;;9.20;99.90;;;;;;5024475;28;20075;-60
2022/11/11 00:11:15;;;;;;;19.38;8.82;;;9.20;99.90;;;;;;5023921;28;20082;-61
2022/11/11 00:13:42;;;;;;;14.55;8.30;;;9.10;99.90;;;;;;5044167;28;20037;-60
2022/11/11 00:16:19;;;;;;;14.93;8.15;;;9.10;99.90;;;;;;5044977;28;20116;-60
2022/11/11 00:27:11;;;;;;;16.63;9.10;;;9.10;99.90;;;;;;5043862;28;20359;-60
2022/11/11 00:29:37;;;;;;;12.77;8.57;;;9.10;99.90;;;;;;5043843;28;20129;-60
2022/11/11 00:32:22;;;;;;;17.15;9.07;;;9.10;99.90;;;;;;5039286;28;20052;-59
2022/11/11 00:37:34;;;;;;;14.88;9.07;;;9.10;99.90;;;;;;5023129;28;21017;-60
2022/11/11 00:40:00;;;;;;;13.52;9.13;;;9.10;99.90;;;;;;5006813;28;20386;-60
2022/11/11 00:42:26;;;;;;;15.27;9.00;;;9.10;99.90;;;;;;5043844;28;20139;-59
2022/11/11 00:44:52;;;;;;;17.40;10.30;;;9.10;99.90;;;;;;5046182;28;20129;-60
2022/11/11 00:52:48;;;;;;;15.48;9.57;;;9.10;99.90;;;;;;5044184;28;20057;-59
2022/11/11 00:55:14;;;;;;;15.40;9.68;;;9.10;99.90;;;;;;5047482;28;20091;-60
2022/11/11 00:57:40;;;;;;;17.38;11.07;;;9.10;99.90;;;;;;5043242;28;20116;-60
2022/11/11 01:00:06;;;;;;;14.20;9.90;;;9.10;99.90;;;;;;5047071;28;20079;-59
2022/11/11 01:02:32;;;;;;;15.25;10.65;;;9.10;99.90;;;;;;5046142;28;20048;-59
2022/11/11 01:04:58;;;;;;;16.30;9.85;;;9.10;99.90;;;;;;5048708;28;20098;-59
2022/11/11 01:07:23;;;;;;;18.35;10.27;;;9.00;99.90;;;;;;5010728;28;20131;-59
2022/11/11 01:09:49;;;;;;;17.65;10.15;;;9.10;99.90;;;;;;5050777;28;20071;-61
2022/11/11 01:12:15;;;;;;;19.08;10.43;;;9.00;99.90;;;;;;5052635;28;20088;-60
2022/11/11 01:14:41;;;;;;;17.88;10.98;;;9.00;99.90;;;;;;5054471;28;20080;-60
2022/11/11 01:17:08;;;;;;;17.38;10.93;;;9.00;99.90;;;;;;5046425;28;20331;-61
2022/11/11 01:19:34;;;;;;;17.30;11.20;;;9.00;99.90;;;;;;5050674;28;20041;-62
2022/11/11 01:22:00;;;;;;;20.58;11.07;;;9.00;99.90;;;;;;5045917;28;20038;-61
2022/11/11 01:24:25;;;;;;;16.98;10.90;;;9.00;99.90;;;;;;5046855;28;20383;-59
2022/11/11 01:26:51;;;;;;;18.27;10.98;;;9.00;99.90;;;;;;5043968;28;20094;-60
2022/11/11 01:29:16;;;;;;;22.52;11.45;;;8.90;99.90;;;;;;5048822;28;20586;-60
2022/11/11 01:31:42;;;;;;;19.40;12.02;;;8.90;99.90;;;;;;5028135;28;20102;-59
2022/11/11 01:34:07;;;;;;;17.70;10.75;;;8.90;99.90;;;;;;5047033;28;20041;-59
2022/11/11 01:36:33;;;;;;;20.90;12.20;;;8.90;99.90;;;;;;5048136;28;20076;-58
2022/11/11 01:39:00;;;;;;;16.92;11.73;;;8.90;99.90;;;;;;5045779;28;20048;-59
2022/11/11 01:41:36;;;;;;;19.13;12.00;;;8.90;99.90;;;;;;5045606;28;20402;-58
2022/11/11 01:44:11;;;;;;;17.55;12.05;;;8.90;99.90;;;;;;5044096;28;20116;-59
2022/11/11 01:46:46;;;;;;;18.80;12.05;;;8.90;99.90;;;;;;5047409;28;20258;-59
2022/11/11 01:49:25;;;;;;;20.33;12.40;;;8.90;99.90;;;;;;5042751;28;20044;-57
2022/11/11 01:52:20;;;;;;;22.13;12.13;;;8.90;99.90;;;;;;5045881;28;20052;-59
2022/11/11 01:55:01;;;;;;;20.70;13.13;;;8.80;99.90;;;;;;5048652;28;20072;-59
2022/11/11 01:57:33;;;;;;;22.23;13.90;;;8.90;99.90;;;;;;5043267;28;20077;-56
2022/11/11 02:00:18;;;;;;;20.30;13.45;;;8.80;99.90;;;;;;5047527;28;20048;-55
2022/11/11 02:02:54;;;;;;;21.42;13.73;;;8.80;99.90;;;;;;5045406;28;20544;-55
2022/11/11 02:08:30;;;;;;;20.77;13.93;;;8.90;99.90;;;;;;5046328;28;20060;-58
2022/11/11 02:11:08;;;;;;;19.45;13.68;;;8.90;99.90;;;;;;5047141;28;20049;-58
2022/11/11 02:16:22;;;;;;;21.48;13.65;;;8.80;99.90;;;;;;5048756;28;20379;-58
2022/11/11 02:18:48;;;;;;;23.50;15.00;;;8.80;99.90;;;;;;5044290;28;20429;-59
2022/11/11 02:21:48;;;;;;;23.42;16.30;;;8.80;99.90;;;;;;5043302;28;20082;-58
2022/11/11 02:24:17;;;;;;;21.10;15.73;;;8.80;99.90;;;;;;5040985;28;20381;-59
2022/11/11 02:26:45;;;;;;;24.45;15.95;;;8.90;99.90;;;;;;5045378;28;20040;-58
2022/11/11 02:29:16;;;;;;;24.35;15.98;;;8.90;99.90;;;;;;5024447;28;20061;-59
2022/11/11 02:31:42;;;;;;;28.92;17.55;;;9.00;99.90;;;;;;5024443;28;20045;-60
2022/11/11 02:34:07;;;;;;;23.73;16.42;;;8.90;99.90;;;;;;5042363;28;20072;-59
2022/11/11 02:36:33;;;;;;;21.65;16.60;;;9.00;99.90;;;;;;5025519;28;20033;-60
2022/11/11 02:38:59;;;;;;;28.27;17.30;;;9.00;99.90;;;;;;5045917;28;20044;-59
2022/11/11 02:44:09;;;;;;;23.00;17.77;;;9.00;99.90;;;;;;5040277;28;20560;-60
2022/11/11 02:46:34;;;;;;;27.02;19.30;;;9.10;99.90;;;;;;5045207;28;20044;-59
2022/11/11 02:49:00;;;;;;;26.50;17.73;;;9.10;99.90;;;;;;5046628;28;20052;-60
2022/11/11 02:51:26;;;;;;;23.85;18.67;;;9.10;99.90;;;;;;5011678;28;20045;-59
2022/11/11 02:53:51;;;;;;;24.38;18.60;;;9.20;99.90;;;;;;5048511;28;20044;-60
2022/11/11 02:57:05;;;;;;;29.33;18.45;;;9.20;99.90;;;;;;5030775;28;20047;-60
2022/11/11 02:59:02;;;;;;;28.55;18.73;;;9.20;99.90;;;;;;5046743;28;20045;-60
2022/11/11 03:01:28;;;;;;;27.75;18.75;;;9.30;99.90;;;;;;5044676;28;20033;-60
2022/11/11 03:03:53;;;;;;;27.10;18.98;;;9.30;99.90;;;;;;5045690;28;20030;-61
2022/11/11 03:06:19;;;;;;;28.17;19.65;;;9.50;99.90;;;;;;5048418;28;20092;-58
2022/11/11 03:08:45;;;;;;;31.20;19.80;;;9.40;99.90;;;;;;5045161;28;20047;-59
2022/11/11 03:11:10;;;;;;;26.67;20.40;;;9.40;99.90;;;;;;5051213;28;20036;-60
2022/11/11 03:13:36;;;;;;;28.92;20.08;;;9.40;99.90;;;;;;5027192;28;20041;-57
2022/11/11 03:16:01;;;;;;;31.77;20.63;;;9.50;99.90;;;;;;5047807;28;20142;-58
2022/11/11 03:18:27;;;;;;;28.20;19.67;;;9.50;99.90;;;;;;5046991;28;20037;-61
2022/11/11 03:21:05;;;;;;;31.13;20.85;;;9.50;99.90;;;;;;5027834;28;20043;-62
2022/11/11 03:23:30;;;;;;;29.30;20.75;;;9.60;99.90;;;;;;5046357;28;20059;-61
2022/11/11 03:25:56;;;;;;;34.40;21.35;;;9.60;99.90;;;;;;5045311;28;20037;-61
2022/11/11 03:28:23;;;;;;;29.38;21.27;;;9.60;99.90;;;;;;5044952;28;20531;-62
2022/11/11 03:30:50;;;;;;;30.05;20.30;;;9.60;99.90;;;;;;5046875;28;20120;-61
2022/11/11 03:33:17;;;;;;;27.90;20.73;;;9.70;99.90;;;;;;5028043;28;20053;-61
2022/11/11 03:35:43;;;;;;;30.02;22.02;;;9.70;99.90;;;;;;5046118;28;20520;-62
2022/11/11 03:38:22;;;;;;;28.92;22.33;;;9.70;99.90;;;;;;5011261;28;20068;-61
2022/11/11 03:40:50;;;;;;;30.30;22.20;;;9.70;99.90;;;;;;5044346;28;20041;-61
2022/11/11 03:43:16;;;;;;;;;;;9.80;99.90;;;;;;5041579;28;20078;-61
2022/11/11 03:45:43;;;;;;;26.90;21.73;;;9.80;99.90;;;;;;5042617;28;20386;-61
2022/11/11 03:48:10;;;;;;;29.80;22.53;;;9.80;99.90;;;;;;5046413;28;20049;-59
2022/11/11 03:50:36;;;;;;;29.92;21.38;;;9.80;99.90;;;;;;5022376;28;20041;-61
2022/11/11 03:53:02;;;;;;;31.08;22.20;;;9.80;99.90;;;;;;5043410;28;20047;-61
2022/11/11 03:55:28;;;;;;;32.42;22.40;;;9.80;99.90;;;;;;5043725;28;20037;-61
2022/11/11 03:57:54;;;;;;;30.00;22.27;;;9.80;99.90;;;;;;5045723;28;20040;-61
2022/11/11 04:00:22;;;;;;;30.00;22.92;;;9.90;99.90;;;;;;5026772;28;20139;-62
2022/11/11 04:11:07;;;;;;;27.33;22.13;;;9.90;99.90;;;;;;5045680;28;20414;-60
2022/11/11 04:16:17;;;;;;;28.60;22.90;;;10.00;99.90;;;;;;5041593;28;20053;-59
2022/11/11 04:21:42;;;;;;;30.88;22.50;;;10.00;99.90;;;;;;5041841;28;20410;-59
2022/11/11 04:27:06;;;;;;;31.20;22.13;;;10.00;99.90;;;;;;5045235;28;20041;-61
2022/11/11 04:29:32;;;;;;;33.08;22.15;;;10.00;99.90;;;;;;5043334;28;20044;-61
2022/11/11 04:34:49;;;;;;;26.65;21.17;;;10.00;99.90;;;;;;5048170;28;20045;-61
2022/11/11 04:37:16;;;;;;;27.80;22.23;;;10.00;99.90;;;;;;5049600;28;20049;-61
2022/11/11 04:42:26;;;;;;;29.33;22.08;;;10.00;99.90;;;;;;5048151;28;20041;-60
2022/11/11 04:47:37;;;;;;;26.27;21.50;;;10.00;99.90;;;;;;5047339;28;20061;-60
2022/11/11 04:50:03;;;;;;;26.98;21.25;;;10.00;99.90;;;;;;5031107;28;20111;-60
2022/11/11 04:52:29;;;;;;;30.20;21.35;;;10.00;99.90;;;;;;5047041;28;20052;-62
2022/11/11 04:57:46;;;;;;;26.88;20.70;;;10.00;99.90;;;;;;5046358;28;20056;-61
2022/11/11 05:00:17;;;;;;;26.67;20.38;;;10.10;99.90;;;;;;5049791;28;20041;-61
2022/11/11 05:10:58;;;;;;;26.30;21.17;;;10.10;99.90;;;;;;5047023;28;20057;-60
2022/11/11 05:21:43;;;;;;;28.42;19.85;;;10.10;99.90;;;;;;5047631;28;20056;-62
2022/11/11 05:26:53;;;;;;;26.08;19.42;;;10.10;99.90;;;;;;5052925;28;20072;-61
2022/11/11 05:29:19;;;;;;;26.63;19.95;;;10.10;99.90;;;;;;5051473;28;20079;-61
2022/11/11 05:31:44;;;;;;;23.02;19.60;;;10.10;99.90;;;;;;5047841;28;20383;-61
2022/11/11 05:34:10;;;;;;;27.98;19.67;;;10.20;99.90;;;;;;5050203;28;20037;-61
2022/11/11 05:36:35;;;;;;;28.00;20.20;;;10.20;99.90;;;;;;5029011;28;20621;-61
2022/11/11 05:39:01;;;;;;;27.42;20.25;;;10.20;99.90;;;;;;5047691;28;20048;-61
2022/11/11 05:41:26;;;;;;;22.88;17.80;;;10.20;99.90;;;;;;5030365;28;20528;-61
2022/11/11 05:43:52;;;;;;;28.30;19.70;;;10.20;99.90;;;;;;5049314;28;20044;-61
2022/11/11 05:46:18;;;;;;;28.13;19.50;;;10.20;99.90;;;;;;5049671;28;20041;-60
2022/11/11 05:51:29;;;;;;;28.33;19.02;;;10.20;99.90;;;;;;5047812;28;20472;-61
2022/11/11 05:53:56;;;;;;;24.67;19.13;;;10.20;99.90;;;;;;5048359;28;20072;-61
2022/11/11 05:56:21;;;;;;;22.20;19.05;;;10.20;99.90;;;;;;5046701;28;20119;-61
2022/11/11 05:58:47;;;;;;;25.08;19.02;;;10.20;99.90;;;;;;5031576;28;20464;-62
2022/11/11 06:01:12;;;;;;;25.40;19.05;;;10.20;99.90;;;;;;5045952;28;20048;-62
2022/11/11 06:03:38;;;;;;;24.40;18.63;;;10.20;99.90;;;;;;5048173;28;20134;-62
2022/11/11 06:06:04;;;;;;;27.23;18.83;;;10.20;99.90;;;;;;5045987;28;20053;-62
2022/11/11 06:08:29;;;;;;;27.40;18.83;;;10.20;99.90;;;;;;5042466;28;20102;-61
2022/11/11 06:10:55;;;;;;;25.08;18.55;;;10.20;99.90;;;;;;5025455;28;20045;-61
2022/11/11 06:13:21;;;;;;;24.75;18.10;;;10.20;99.90;;;;;;5045890;28;20045;-61
2022/11/11 06:15:46;;;;;;;25.92;18.85;;;10.20;99.90;;;;;;5029604;28;20045;-61
2022/11/11 06:18:12;;;;;;;23.75;18.65;;;10.20;99.90;;;;;;5030748;28;20048;-61
2022/11/11 06:20:37;;;;;;;23.25;17.85;;;10.20;99.90;;;;;;5047379;28;20040;-62
2022/11/11 06:23:04;;;;;;;22.83;18.40;;;10.20;99.90;;;;;;5046135;28;20122;-60
2022/11/11 06:28:17;;;;;;;23.48;17.75;;;10.20;99.90;;;;;;5045284;28;20045;-61
2022/11/11 06:30:43;;;;;;;21.17;17.17;;;10.20;99.90;;;;;;5029810;28;20099;-61
2022/11/11 06:33:09;;;;;;;23.90;17.30;;;10.20;99.90;;;;;;5047554;28;20041;-62
2022/11/11 06:35:36;;;;;;;24.80;18.40;;;10.20;99.90;;;;;;5049070;28;20174;-61
2022/11/11 06:38:03;;;;;;;26.00;18.33;;;10.20;99.90;;;;;;5045407;28;20041;-61
2022/11/11 06:40:32;;;;;;;23.25;18.25;;;10.20;99.90;;;;;;5047278;28;20091;-61
2022/11/11 06:42:59;;;;;;;26.13;18.40;;;10.20;99.90;;;;;;5047701;28;20128;-62
2022/11/11 06:45:26;;;;;;;24.52;17.17;;;10.20;99.90;;;;;;5046116;28;20390;-61
2022/11/11 06:47:52;;;;;;;25.85;18.65;;;10.20;99.90;;;;;;5048310;28;20045;-60
2022/11/11 06:50:18;;;;;;;29.70;18.77;;;10.20;99.90;;;;;;5048511;28;20052;-61
2022/11/11 06:52:44;;;;;;;26.42;18.23;;;10.20;99.90;;;;;;5047558;28;20095;-60
2022/11/11 06:55:10;;;;;;;26.83;17.25;;;10.20;99.90;;;;;;5047373;28;20043;-62
2022/11/11 06:57:36;;;;;;;23.13;17.52;;;10.20;99.90;;;;;;5045483;28;20045;-61
2022/11/11 07:00:05;;;;;;;24.50;17.33;;;10.20;99.90;;;;;;5048790;28;20048;-62
2022/11/11 07:02:31;;;;;;;21.90;16.95;;;10.20;99.90;;;;;;5045873;28;20123;-61
2022/11/11 07:04:57;;;;;;;22.90;17.55;;;10.20;99.90;;;;;;5047335;28;20546;-59
2022/11/11 07:07:22;;;;;;;30.48;18.08;;;10.20;99.90;;;;;;5045991;28;20131;-61
2022/11/11 07:09:48;;;;;;;23.67;17.98;;;10.20;99.90;;;;;;5048797;28;20063;-61
2022/11/11 07:12:14;;;;;;;23.50;17.40;;;10.20;99.90;;;;;;5050780;28;20411;-62
2022/11/11 07:14:40;;;;;;;24.77;17.90;;;10.20;99.90;;;;;;5046800;28;20617;-62
2022/11/11 07:17:05;;;;;;;24.55;17.58;;;10.20;99.90;;;;;;5047250;28;20098;-60
2022/11/11 07:19:31;;;;;;;25.08;17.95;;;10.20;99.90;;;;;;5047022;28;20086;-61
2022/11/11 07:21:56;;;;;;;23.88;17.83;;;10.20;99.90;;;;;;5048274;28;20051;-61
2022/11/11 07:24:22;;;;;;;25.13;16.88;;;10.20;99.90;;;;;;5046575;28;20528;-62
2022/11/11 07:26:48;;;;;;;26.17;17.15;;;10.20;99.90;;;;;;5049276;28;20045;-62
2022/11/11 07:29:14;;;;;;;27.80;17.35;;;10.20;99.90;;;;;;5043959;28;20052;-61
2022/11/11 07:31:40;;;;;;;22.88;17.08;;;10.20;99.90;;;;;;5041252;28;20053;-59
2022/11/11 07:34:06;;;;;;;24.52;17.63;;;10.20;99.90;;;;;;5041511;28;20037;-60
2022/11/11 07:36:32;;;;;;;21.70;16.48;;;10.30;99.90;;;;;;5042747;28;20087;-60
2022/11/11 07:38:58;;;;;;;24.20;17.15;;;10.30;99.90;;;;;;5025248;28;20096;-60
2022/11/11 07:41:23;;;;;;;24.17;17.30;;;10.20;99.90;;;;;;5028331;28;20179;-59
2022/11/11 07:43:49;;;;;;;22.38;17.67;;;10.30;99.90;;;;;;5042041;28;20041;-60
2022/11/11 07:46:14;;;;;;;26.48;17.85;;;10.30;99.90;;;;;;5045174;28;20044;-60
2022/11/11 07:48:40;;;;;;;25.52;18.00;;;10.30;99.90;;;;;;5043541;28;20489;-61
2022/11/11 07:51:06;;;;;;;23.95;17.65;;;10.30;99.90;;;;;;5046883;28;20037;-61
2022/11/11 07:53:31;;;;;;;22.23;17.02;;;10.30;99.90;;;;;;5043654;28;20052;-60
2022/11/11 07:55:57;;;;;;;25.67;17.60;;;10.30;99.90;;;;;;5044064;28;20037;-60
2022/11/11 07:58:22;;;;;;;23.25;18.15;;;10.30;99.90;;;;;;5045475;28;20040;-60
2022/11/11 08:00:48;;;;;;;24.90;17.90;;;10.30;99.90;;;;;;5045608;28;20079;-60
2022/11/11 08:03:14;;;;;;;23.83;16.67;;;10.30;99.90;;;;;;5045863;28;20086;-60
2022/11/11 08:05:39;;;;;;;24.63;17.05;;;10.30;99.90;;;;;;5044730;28;20037;-60
2022/11/11 08:08:06;;;;;;;25.17;18.10;;;10.30;99.90;;;;;;5049942;28;20522;-59
2022/11/11 08:10:32;;;;;;;22.87;17.57;;;10.30;99.90;;;;;;5050202;28;20045;-58
2022/11/11 08:15:43;;;;;;;21.13;17.48;;;10.40;99.90;;;;;;5049374;28;20139;-60
2022/11/11 08:18:09;;;;;;;22.15;17.27;;;10.40;99.90;;;;;;5043999;28;20116;-60
2022/11/11 08:20:35;;;;;;;22.35;17.08;;;10.40;99.90;;;;;;5048077;28;20037;-61
2022/11/11 08:23:03;;;;;;;20.25;17.13;;;10.40;99.90;;;;;;5051415;28;20090;-61
2022/11/11 08:25:29;;;;;;;25.55;17.08;;;10.40;99.90;;;;;;5047557;28;20056;-62
2022/11/11 08:27:57;;;;;;;26.20;18.73;;;10.40;99.90;;;;;;5047715;28;20029;-61
2022/11/11 08:30:22;;;;;;;20.98;18.17;;;10.50;99.90;;;;;;5047191;28;20142;-61
2022/11/11 08:32:48;;;;;;;20.40;17.58;;;10.50;99.90;;;;;;5042965;28;20045;-61
2022/11/11 08:35:14;;;;;;;22.85;19.38;;;10.50;99.90;;;;;;5046954;28;20037;-62
2022/11/11 08:37:39;;;;;;;23.80;18.50;;;10.50;99.90;;;;;;5048501;28;20095;-61
2022/11/11 08:40:05;;;;;;;24.08;17.75;;;10.50;99.90;;;;;;5047912;28;20041;-62
2022/11/11 08:42:31;;;;;;;23.60;19.63;;;10.60;99.90;;;;;;5048543;28;20049;-60
2022/11/11 08:44:56;;;;;;;27.00;19.80;;;10.60;99.90;;;;;;5049424;28;20478;-61
2022/11/11 08:47:23;;;;;;;26.73;21.08;;;10.60;99.90;;;;;;5052074;28;20070;-60
2022/11/11 08:49:49;;;;;;;28.70;21.67;;;10.60;99.90;;;;;;5053747;28;20400;-60
2022/11/11 08:52:16;;;;;;;32.40;22.85;;;10.70;99.90;;;;;;5055585;28;20045;-60
2022/11/11 08:54:41;;;;;;;28.65;22.05;;;10.70;99.90;;;;;;5053957;28;20170;-61
2022/11/11 08:57:07;;;;;;;29.17;23.00;;;10.70;99.90;;;;;;5052708;28;20123;-62
2022/11/11 08:59:33;;;;;;;30.25;22.77;;;10.80;99.90;;;;;;5053478;28;20092;-60
2022/11/11 09:01:58;;;;;;;29.67;23.30;;;10.80;99.90;;;;;;5054516;28;20037;-61
2022/11/11 09:04:24;;;;;;;29.95;21.52;;;10.80;99.90;;;;;;5053896;28;20402;-60
2022/11/11 09:06:49;;;;;;;27.88;21.58;;;10.80;99.90;;;;;;5037336;28;20053;-61
2022/11/11 09:09:15;;;;;;;27.05;21.08;;;10.70;99.90;;;;;;5054155;28;20041;-61
2022/11/11 09:11:41;;;;;;;27.77;21.17;;;10.70;99.90;;;;;;5053347;28;20048;-61
2022/11/11 09:14:06;;;;;;;27.98;20.92;;;10.80;99.90;;;;;;5055270;28;20495;-61
2022/11/11 09:16:32;;;;;;;27.13;20.88;;;10.80;99.90;;;;;;5053348;28;20063;-62
2022/11/11 09:18:57;;;;;;;26.40;19.92;;;10.80;99.90;;;;;;5053330;28;20041;-61
2022/11/11 09:21:23;;;;;;;24.38;18.58;;;10.80;99.90;;;;;;5053737;28;20041;-61
2022/11/11 09:23:48;;;;;;;26.17;19.02;;;10.80;99.90;;;;;;5054480;28;20402;-61
2022/11/11 09:26:14;;;;;;;20.02;17.20;;;10.80;99.90;;;;;;5036304;28;20044;-58
2022/11/11 09:28:40;;;;;;;21.50;17.80;;;10.80;99.90;;;;;;5055738;28;20055;-61
2022/11/11 09:31:05;;;;;;;20.42;17.05;;;10.80;99.90;;;;;;5056025;28;20043;-61
2022/11/11 09:33:31;;;;;;;21.85;16.83;;;10.80;99.90;;;;;;5054500;28;20402;-61
2022/11/11 09:35:58;;;;;;;20.02;15.93;;;10.80;99.90;;;;;;5053939;28;20068;-60
2022/11/11 09:38:23;;;;;;;21.35;16.83;;;10.90;99.90;;;;;;5053959;28;20041;-58
2022/11/11 09:41:17;;;;;;;18.83;15.32;;;10.80;99.90;;;;;;5054150;28;20033;-60
2022/11/11 09:43:52;;;;;;;18.80;15.25;;;10.80;99.90;;;;;;5054518;28;20444;-61
2022/11/11 09:46:30;;;;;;;19.65;16.10;;;10.80;99.90;;;;;;5034028;28;20092;-60
2022/11/11 09:49:23;;;;;;;18.42;15.05;;;10.80;99.90;;;;;;5053498;28;20083;-61
2022/11/11 09:51:58;;;;;;;18.38;14.80;;;10.70;99.90;;;;;;5051711;28;20140;-61
2022/11/11 09:54:33;;;;;;;16.77;14.75;;;10.70;99.90;;;;;;5052599;28;20091;-59
2022/11/11 09:57:05;;;;;;;17.35;14.98;;;10.80;99.90;;;;;;5050907;28;20052;-61
2022/11/11 09:59:46;;;;;;;16.20;14.43;;;10.80;99.90;;;;;;5035370;28;20048;-62
2022/11/11 10:02:26;;;;;;;18.73;14.52;;;10.80;99.90;;;;;;5050022;28;20406;-60
2022/11/11 10:05:17;;;;;;;16.63;14.20;;;10.90;99.90;;;;;;5052377;28;20479;-61
2022/11/11 10:08:00;;;;;;;16.08;13.98;;;10.90;99.90;;;;;;5052751;28;20058;-60
2022/11/11 10:10:41;;;;;;;15.45;13.90;;;11.00;99.90;;;;;;5041168;28;20041;-61
2022/11/11 10:13:14;;;;;;;17.45;13.70;;;11.10;99.90;;;;;;5047322;28;20049;-62
2022/11/11 10:15:57;;;;;;;14.80;13.30;;;11.30;99.90;;;;;;5049371;28;20045;-61
2022/11/11 10:18:41;;;;;;;15.45;12.98;;;11.50;99.90;;;;;;5049344;28;20064;-61
2022/11/11 10:21:14;;;;;;;14.13;12.65;;;11.60;99.90;;;;;;5041901;28;20059;-61
2022/11/11 10:23:45;;;;;;;18.65;13.38;;;11.70;99.90;;;;;;5050182;28;20443;-61
2022/11/11 10:26:20;;;;;;;15.38;13.48;;;11.70;99.90;;;;;;5051555;28;20059;-61
2022/11/11 10:28:49;;;;;;;14.20;12.32;;;11.70;99.90;;;;;;5035622;28;20394;-60
2022/11/11 10:31:18;;;;;;;14.77;12.93;;;11.70;99.90;;;;;;5050897;28;20033;-61
2022/11/11 10:33:50;;;;;;;16.70;12.70;;;11.90;99.90;;;;;;5052380;28;20053;-58
2022/11/11 10:36:21;;;;;;;15.93;13.20;;;12.10;99.90;;;;;;5047676;28;20038;-58
2022/11/11 10:38:57;;;;;;;14.48;13.00;;;12.10;99.90;;;;;;5051991;28;20402;-61
2022/11/11 10:41:32;;;;;;;12.93;11.52;;;12.30;99.90;;;;;;5050825;28;20059;-61
2022/11/11 10:43:58;;;;;;;13.60;12.18;;;12.40;99.90;;;;;;5051476;28;20418;-60
2022/11/11 10:46:36;;;;;;;14.45;12.38;;;12.50;99.90;;;;;;5044279;28;20053;-59
2022/11/11 10:49:04;;;;;;;;;;;12.60;99.90;;;;;;5049169;28;20044;-57
2022/11/11 10:51:51;;;;;;;13.95;11.20;;;12.70;99.90;;;;;;5037308;28;19921;-57
2022/11/11 10:54:20;;;;;;;13.80;10.93;;;12.60;99.90;;;;;;5049847;28;20041;-59
2022/11/11 10:57:02;;;;;;;14.88;11.73;;;12.70;99.90;;;;;;5046998;28;20094;-57
2022/11/11 10:59:38;;;;;;;12.43;11.07;;;12.70;99.90;;;;;;5050979;28;20402;-58
2022/11/11 11:02:11;;;;;;;13.05;11.15;;;12.70;99.90;;;;;;5031588;28;20052;-56
2022/11/11 11:04:45;;;;;;;12.38;11.07;;;12.70;99.90;;;;;;5052905;28;20164;-57
2022/11/11 11:07:16;;;;;;;12.52;10.32;;;12.70;99.90;;;;;;5048619;28;20072;-57
2022/11/11 11:09:49;;;;;;;14.23;10.73;;;12.70;99.90;;;;;;5046413;28;20045;-58
2022/11/11 11:12:56;;;;;;;14.00;10.82;;;12.70;99.90;;;;;;5051365;28;20103;-57
2022/11/11 11:15:25;;;;;;;14.18;10.65;;;12.70;99.90;;;;;;5051396;28;20072;-56
2022/11/11 11:18:13;;;;;;;12.48;10.85;;;12.60;99.90;;;;;;5050460;28;20083;-58
2022/11/11 11:20:57;;;;;;;13.30;10.95;;;12.60;99.90;;;;;;5028126;28;20087;-57
2022/11/11 11:23:44;;;;;;;13.90;10.93;;;12.50;99.90;;;;;;5048029;28;20053;-57
2022/11/11 11:26:12;;;;;;;11.93;10.25;;;12.60;99.90;;;;;;5048787;28;20117;-57
2022/11/11 11:28:58;;;;;;;13.85;10.80;;;12.60;99.90;;;;;;5050184;28;20041;-58
2022/11/11 11:31:41;;;;;;;11.57;10.48;;;12.60;99.90;;;;;;5050435;28;20513;-58
2022/11/11 11:34:07;;;;;;;10.52;9.52;;;12.70;99.90;;;;;;5051512;28;20517;-58
2022/11/11 11:36:33;;;;;;;11.00;9.32;;;12.60;99.90;;;;;;5049440;28;20071;-58
2022/11/11 11:39:00;;;;;;;11.05;9.68;;;12.60;99.90;;;;;;5032396;28;20036;-58
2022/11/11 11:41:42;;;;;;;10.65;9.27;;;12.60;99.90;;;;;;5051452;28;20064;-57
2022/11/11 11:44:30;;;;;;;13.98;9.48;;;12.70;99.90;;;;;;5030215;28;20060;-58
2022/11/11 11:47:21;;;;;;;13.10;9.77;;;12.70;99.90;;;;;;5048307;28;20045;-58
2022/11/11 11:50:07;;;;;;;13.80;9.60;;;12.70;99.90;;;;;;5049702;28;20041;-57
2022/11/11 11:52:57;;;;;;;11.70;9.13;;;12.80;99.90;;;;;;5047087;28;20041;-57
2022/11/11 11:55:28;;;;;;;10.80;9.30;;;12.90;99.90;;;;;;5047537;28;20049;-56
2022/11/11 11:57:56;;;;;;;10.00;9.00;;;12.90;99.90;;;;;;5045299;28;20399;-58
2022/11/11 12:00:24;;;;;;;10.52;9.20;;;12.90;99.90;;;;;;5044558;28;20045;-58
2022/11/11 12:02:50;;;;;;;;;;;12.80;99.90;;;;;;5027324;28;20045;-58
2022/11/11 12:05:45;;;;;;;11.23;8.95;;;12.80;99.90;;;;;;5045399;28;19998;-59
2022/11/11 12:08:14;;;;;;;9.38;7.82;;;12.90;99.90;;;;;;5048820;28;20045;-59
2022/11/11 12:11:10;;;;;;;12.43;8.68;;;12.90;99.90;;;;;;5046189;28;20090;-58
2022/11/11 12:13:58;;;;;;;10.25;8.10;;;13.00;99.90;;;;;;4963707;28;21067;-58
2022/11/11 12:16:42;;;;;;;11.23;7.28;;;13.00;99.90;;;;;;4963509;28;20484;-59
2022/11/11 12:19:37;;;;;;;10.70;8.13;;;13.10;99.90;;;;;;4957154;28;20594;-58
2022/11/11 12:22:22;;;;;;;9.98;7.65;;;13.10;99.90;;;;;;4964592;28;20050;-58
2022/11/11 12:25:12;;;;;;;9.48;7.22;;;13.10;99.90;;;;;;4963008;28;20491;-57
2022/11/11 12:28:03;;;;;;;10.35;7.55;;;13.10;99.90;;;;;;4961951;28;20137;-58
2022/11/11 12:30:31;;;;;;;9.40;7.03;;;13.20;99.90;;;;;;4941672;28;20968;-57
2022/11/11 12:33:18;;;;;;;9.25;7.30;;;13.20;99.90;;;;;;4963920;28;20083;-58
2022/11/11 12:36:07;;;;;;;9.27;6.18;;;13.20;99.90;;;;;;4969587;28;20054;-58
2022/11/11 12:38:45;;;;;;;8.90;6.55;;;13.20;99.90;;;;;;4968395;28;20047;-58
2022/11/11 12:41:18;;;;;;;9.18;7.00;;;13.20;99.90;;;;;;4966835;28;20053;-57
2022/11/11 12:44:02;;;;;;;10.15;7.30;;;13.20;99.90;;;;;;4978478;28;20095;-58
2022/11/11 12:46:55;;;;;;;11.20;7.53;;;13.20;99.90;;;;;;4950915;28;20098;-58
2022/11/11 12:49:45;;;;;;;10.55;7.28;;;13.20;99.90;;;;;;4982888;28;20053;-58
2022/11/11 12:52:52;;;;;;;9.77;6.60;;;13.20;99.90;;;;;;5043112;28;20045;-58
2022/11/11 12:55:29;;;;;;;9.68;7.25;;;13.20;99.90;;;;;;5050817;28;20067;-58
2022/11/11 12:58:34;;;;;;;8.88;6.63;;;13.20;99.90;;;;;;5051929;28;20053;-58
2022/11/11 13:01:17;;;;;;;9.50;7.00;;;13.20;99.90;;;;;;5053879;28;20502;-58
2022/11/11 13:04:19;;;;;;;8.23;5.95;;;13.20;99.90;;;;;;5045883;28;20522;-58
2022/11/11 13:07:15;;;;;;;8.27;6.38;;;13.10;99.90;;;;;;5052939;28;20536;-58
2022/11/11 13:10:17;;;;;;;8.82;6.80;;;13.20;99.90;;;;;;5034183;28;20128;-58
2022/11/11 13:13:03;;;;;;;9.40;6.15;;;13.20;99.90;;;;;;5051250;28;20547;-59
2022/11/11 13:15:29;;;;;;;6.80;6.10;;;13.20;99.90;;;;;;5054294;28;20440;-58
2022/11/11 13:17:59;;;;;;;7.10;6.40;;;13.20;99.90;;;;;;5029012;28;20089;-59
2022/11/11 13:20:42;;;;;;;9.90;6.38;;;13.20;99.90;;;;;;5055131;28;20116;-61
2022/11/11 13:23:11;;;;;;;10.77;6.85;;;13.10;99.90;;;;;;5054889;28;20224;-60
2022/11/11 13:25:46;;;;;;;9.88;6.18;;;13.00;99.90;;;;;;5056217;28;20041;-59
2022/11/11 13:28:28;;;;;;;8.40;6.53;;;13.00;99.90;;;;;;5051629;28;20110;-60
2022/11/11 13:31:23;;;;;;;9.40;6.30;;;13.00;99.90;;;;;;5051131;28;20045;-60
2022/11/11 13:33:54;;;;;;;7.95;6.93;;;13.00;99.90;;;;;;5048465;28;20047;-60
2022/11/11 13:36:24;;;;;;;8.68;6.13;;;13.00;99.90;;;;;;5050275;28;20059;-60
2022/11/11 13:38:55;;;;;;;10.25;6.60;;;13.00;99.90;;;;;;5049018;28;20739;-61
2022/11/11 13:41:34;;;;;;;10.20;6.25;;;13.00;99.90;;;;;;5048507;28;20498;-61
2022/11/11 13:44:04;;;;;;;10.18;7.18;;;13.00;99.90;;;;;;5048047;28;20064;-60
2022/11/11 13:46:37;;;;;;;8.25;6.30;;;13.00;99.90;;;;;;5050081;28;20433;-59
2022/11/11 13:49:05;;;;;;;9.13;5.88;;;13.10;99.90;;;;;;5031663;28;20091;-60
2022/11/11 13:51:43;;;;;;;7.78;5.95;;;13.10;99.90;;;;;;5050579;28;20037;-59
2022/11/11 13:54:33;;;;;;;7.38;5.82;;;13.20;99.90;;;;;;5048176;28;20041;-60
2022/11/11 13:57:14;;;;;;;9.93;5.95;;;13.20;99.90;;;;;;5047383;28;20056;-59
2022/11/11 13:59:43;;;;;;;8.73;5.85;;;13.20;99.90;;;;;;5047654;28;20037;-57
2022/11/11 14:02:17;;;;;;;8.43;6.03;;;13.20;99.90;;;;;;5049912;28;20494;-58
2022/11/11 14:05:02;;;;;;;7.97;5.57;;;13.20;99.90;;;;;;5047573;28;20037;-59
2022/11/11 14:07:48;;;;;;;10.85;6.13;;;13.30;99.90;;;;;;5051076;28;20080;-60
2022/11/11 14:10:16;;;;;;;8.60;5.50;;;13.30;99.90;;;;;;5048703;28;20131;-59
2022/11/11 14:12:54;;;;;;;10.15;5.97;;;13.30;99.90;;;;;;5048085;28;20045;-60
2022/11/11 14:15:40;;;;;;;9.52;5.32;;;13.30;99.90;;;;;;5030534;28;20486;-60